This is the latest recevied weather packets stored in our database for station/object OK2ILA-13. If no packets are shown the sender has not sent any weather packets the latest 10 day(s).
| Time | Temp. | Humidity | Pressure | Rain* | Wind** | Luminosity | Snow |
|---|---|---|---|---|---|---|---|
| 1777465790 | 6.11° C | 33% | 1024.9 hPa | - | - | - | - |
| 1777465190 | 6.11° C | 34% | 1025 hPa | - | - | - | - |
| 1777464589 | 6.11° C | 38% | 1024.6 hPa | - | - | - | - |
| 1777462790 | 6.67° C | 39% | 1024.7 hPa | - | - | - | - |
| 1777462190 | 6.67° C | 41% | 1024.6 hPa | - | - | - | - |
| 1777461591 | 6.11° C | 40% | 1024.7 hPa | - | - | - | - |
| 1777460991 | 6.11° C | 42% | 1024.7 hPa | - | - | - | - |
| 1777460391 | 6.11° C | 44% | 1024.9 hPa | - | - | - | - |
| 1777459192 | 5.56° C | 44% | 1024.9 hPa | - | - | - | - |
| 1777458592 | 5.56° C | 44% | 1024.9 hPa | - | - | - | - |
| 1777457992 | 6.11° C | 43% | 1024.7 hPa | - | - | - | - |
| 1777457392 | 6.11° C | 44% | 1024.9 hPa | - | - | - | - |
| 1777455595 | 5.56° C | 47% | 1024.7 hPa | - | - | - | - |
| 1777454997 | 5.56° C | 48% | 1024.8 hPa | - | - | - | - |
| 1777454396 | 5.56° C | 48% | 1024.7 hPa | - | - | - | - |
| 1777453796 | 6.11° C | 47% | 1024.7 hPa | - | - | - | - |
| 1777453197 | 6.67° C | 46% | 1024.6 hPa | - | - | - | - |
| 1777452597 | 6.67° C | 47% | 1024.7 hPa | - | - | - | - |
| 1777451999 | 6.11° C | 46% | 1024.7 hPa | - | - | - | - |
| 1777451399 | 6.11° C | 45% | 1024.7 hPa | - | - | - | - |
| 1777450799 | 5.56° C | 47% | 1024.6 hPa | - | - | - | - |
| 1777450199 | 6.11° C | 45% | 1024.4 hPa | - | - | - | - |
| 1777449599 | 5° C | 47% | 1024.3 hPa | - | - | - | - |
| 1777448400 | 6.11° C | 42% | 1024.3 hPa | - | - | - | - |
| 1777447800 | 6.67° C | 40% | 1024 hPa | - | - | - | - |
* Rain since midnight (hover to see other rain measurements)
** Current wind speed in m/s (hover to see current wind gust speed)